Terminal Aerodrome Forecast
Issued by NWS

Home | Current Version | Previous Version | Text Only | Print | Product List | Glossary On
Versions: 1 2 3 4 5 6 7 8 9 10 11 12 13 14 15 16 17 18
000
FTPA31 PHFO 172045 AAB
TAFMDY
TAF AMD
PMDY 172045Z 1721/1818 10005KT P6SM VCSH SCT020 BKN035 OVC060
     FM172200 15011KT P6SM VCSH FEW020 SCT035 BKN050
     FM181200 15014KT P6SM -SHRA SCT020 OVC035=

USA.gov is the U.S. government's official web portal to all federal, state and local government web resources and services.